Time;durP1;ratioP1;P1;durP2;ratioP2;P2;SDS_P1;SDS_P2;PMS_P1;PMS_P2;Temp;Humidity;BMP_temperature;BMP_pressure;BME280_temperature;BME280_humidity;BME280_pressure;Samples;Min_cycle;Max_cycle;Signal;HPM_P1;HPM_P2
2023/12/25 00:00:41;;;;;;;9.50;8.73;;;;;;;6.70;100.00;142957.28;5092188;28;20621;-63
2023/12/25 00:03:09;;;;;;;11.00;9.70;;;;;;;6.60;100.00;146772.84;5091760;28;20184;-63
2023/12/25 00:05:36;;;;;;;9.47;8.87;;;;;;;6.58;100.00;142350.13;5091617;28;20230;-62
2023/12/25 00:08:04;;;;;;;10.70;9.77;;;;;;;6.61;100.00;140536.13;5091781;28;20692;-63
2023/12/25 00:10:31;;;;;;;11.27;10.07;;;;;;;6.66;100.00;130721.72;5091648;28;20249;-62
2023/12/25 00:12:58;;;;;;;13.87;9.80;;;;;;;6.74;100.00;121648.72;5091904;28;20188;-62
2023/12/25 00:15:25;;;;;;;9.07;8.47;;;;;;;6.75;100.00;124412.38;5091718;28;20192;-62
2023/12/25 00:17:53;;;;;;;11.53;10.47;;;;;;;6.66;100.00;125628.53;5092024;28;20614;-63
2023/12/25 00:20:20;;;;;;;9.97;9.27;;;;;;;6.73;100.00;114084.06;5091497;28;20245;-63
2023/12/25 00:22:47;;;;;;;15.40;9.80;;;;;;;6.61;100.00;125768.16;5091835;28;20209;-63
2023/12/25 00:25:14;;;;;;;9.77;8.97;;;;;;;6.63;100.00;121295.75;5091568;28;20184;-62
2023/12/25 00:27:41;;;;;;;10.47;9.33;;;;;;;6.65;100.00;112099.81;5091783;28;20657;-63
2023/12/25 00:30:09;;;;;;;10.13;9.10;;;;;;;6.59;100.00;106186.59;5091891;28;20184;-62
2023/12/25 00:32:36;;;;;;;13.00;9.53;;;;;;;6.75;100.00;109166.06;5091738;28;20192;-63
2023/12/25 00:35:05;;;;;;;10.47;9.00;;;;;;;6.75;100.00;118360.00;5092397;28;20188;-63
2023/12/25 00:37:32;;;;;;;8.93;8.10;;;;;;;6.72;100.00;127407.63;5095399;28;20204;-62
2023/12/25 00:39:59;;;;;;;8.97;8.37;;;;;;;6.73;100.00;131474.72;5095515;28;20215;-63
2023/12/25 00:42:26;;;;;;;10.00;9.37;;;;;;;6.75;100.00;127291.59;5095191;28;20188;-62
2023/12/25 00:44:53;;;;;;;10.33;9.23;;;;;;;6.86;100.00;123067.81;5095152;28;20265;-62
2023/12/25 00:47:20;;;;;;;8.40;8.00;;;;;;;6.79;100.00;136092.88;5095412;28;20176;-63
2023/12/25 00:49:47;;;;;;;9.13;8.43;;;;;;;6.63;100.00;140570.72;5095254;28;20184;-62
2023/12/25 00:52:17;;;;;;;8.10;7.43;;;;;;;6.68;100.00;147726.47;5094917;28;20290;-62
2023/12/25 00:54:44;;;;;;;8.17;7.37;;;;;;;6.60;100.00;147707.59;5095268;28;20563;-64
2023/12/25 00:57:11;;;;;;;8.63;8.07;;;;;;;6.58;100.00;147701.25;5094896;28;20247;-62
2023/12/25 00:59:38;;;;;;;8.70;8.10;;;;;;;6.58;100.00;147702.53;5095012;28;20196;-62
2023/12/25 01:02:06;;;;;;;8.53;7.87;;;;;;;6.57;100.00;147698.78;5095136;28;20625;-62
2023/12/25 01:04:33;;;;;;;8.20;7.40;;;;;;;6.41;100.00;147659.69;5094866;28;20196;-63
2023/12/25 01:07:00;;;;;;;8.47;7.77;;;;;;;6.35;100.00;144578.50;5095179;28;20180;-62
2023/12/25 01:09:28;;;;;;;8.90;8.23;;;;;;;6.43;100.00;132514.28;5094689;28;20190;-63
2023/12/25 01:11:55;;;;;;;8.23;7.73;;;;;;;6.69;100.00;122624.69;5094602;28;20188;-63
2023/12/25 01:14:22;;;;;;;8.30;7.70;;;;;;;6.63;100.00;128069.00;5095086;28;20699;-64
2023/12/25 01:16:49;;;;;;;7.60;6.93;;;;;;;6.61;100.00;120304.72;5094995;28;20180;-63
2023/12/25 01:19:16;;;;;;;9.13;8.43;;;;;;;6.82;100.00;119031.94;5094793;28;20204;-63
2023/12/25 01:21:43;;;;;;;8.77;8.00;;;;;;;6.83;100.00;125785.97;5094775;28;20188;-63
2023/12/25 01:24:10;;;;;;;10.33;9.30;;;;;;;6.53;100.00;138319.94;5094663;28;20638;-65
2023/12/25 01:26:39;;;;;;;7.77;6.97;;;;;;;6.40;100.00;137794.72;5094343;28;20185;-62
2023/12/25 01:29:06;;;;;;;7.43;6.93;;;;;;;6.46;100.00;123949.59;5094422;28;20261;-63
2023/12/25 01:31:35;;;;;;;7.50;7.00;;;;;;;6.53;100.00;120370.50;5094253;28;20214;-63
2023/12/25 01:34:02;;;;;;;7.77;7.17;;;;;;;6.52;100.00;129888.06;5094281;28;20223;-64
2023/12/25 01:36:29;;;;;;;7.43;6.70;;;;;;;6.48;100.00;125601.28;5094590;28;20612;-63
2023/12/25 01:38:56;;;;;;;7.87;7.30;;;;;;;6.59;100.00;129827.38;5094310;28;20204;-63
2023/12/25 01:41:23;;;;;;;7.23;6.73;;;;;;;6.64;100.00;121707.63;5094432;28;20620;-63
2023/12/25 01:43:52;;;;;;;7.57;7.00;;;;;;;6.63;100.00;133084.50;5094282;28;20188;-64
2023/12/25 01:46:20;;;;;;;8.77;8.23;;;;;;;6.57;100.00;136909.19;5093998;28;20180;-63
2023/12/25 01:48:51;;;;;;;11.67;10.07;;;;;;;6.54;100.00;139992.19;5094017;28;20237;-64
2023/12/25 01:51:18;;;;;;;10.33;9.60;;;;;;;6.55;100.00;143803.97;5093960;28;20251;-64
2023/12/25 01:53:45;;;;;;;10.73;9.63;;;;;;;6.33;100.00;147640.81;5093809;28;20262;-63
2023/12/25 01:56:12;;;;;;;9.93;9.00;;;;;;;6.25;100.00;147440.81;5094211;28;20605;-63
2023/12/25 01:58:39;;;;;;;10.37;9.13;;;;;;;6.41;100.00;140954.44;5093823;28;20204;-63
2023/12/25 02:01:08;;;;;;;17.67;12.53;;;;;;;6.21;100.00;142129.72;5093720;28;20200;-64
2023/12/25 02:03:35;;;;;;;14.57;10.80;;;;;;;6.31;100.00;144285.41;5093751;28;20249;-65
2023/12/25 02:06:03;;;;;;;15.43;12.17;;;;;;;6.38;100.00;136112.41;5093932;28;20180;-62
2023/12/25 02:08:30;;;;;;;13.63;11.47;;;;;;;6.36;100.00;141510.91;5093625;28;20237;-63
2023/12/25 02:11:03;;;;;;;16.77;12.73;;;;;;;6.28;100.00;145026.75;5093840;28;20634;-62
2023/12/25 02:13:30;;;;;;;14.13;12.07;;;;;;;6.23;100.00;145923.47;5093823;28;20195;-62
2023/12/25 02:15:57;;;;;;;16.07;12.43;;;;;;;6.21;100.00;146649.31;5093739;28;20241;-62
2023/12/25 02:18:26;;;;;;;19.13;13.13;;;;;;;6.17;100.00;142182.03;5093352;28;20242;-62
2023/12/25 02:20:53;;;;;;;14.63;13.10;;;;;;;6.06;100.00;133920.06;5093581;28;20241;-65
2023/12/25 02:23:23;;;;;;;19.90;15.13;;;;;;;5.89;100.00;123237.69;5093371;28;20250;-63
2023/12/25 02:25:56;;;;;;;17.93;13.53;;;;;;;5.62;100.00;121011.75;5093584;28;20188;-62
2023/12/25 02:28:23;;;;;;;15.60;11.50;;;;;;;5.25;100.00;116123.38;5093474;28;20213;-63
2023/12/25 02:30:51;;;;;;;15.00;12.13;;;;;;;5.44;100.00;115131.38;5093482;28;20184;-64
2023/12/25 02:33:18;;;;;;;16.87;12.50;;;;;;;5.55;100.00;109926.19;5093433;28;20266;-63
2023/12/25 02:35:45;;;;;;;14.70;12.93;;;;;;;5.64;100.00;107978.09;5093140;28;20176;-62
2023/12/25 02:38:13;;;;;;;16.77;13.73;;;;;;;5.67;100.00;105722.47;5093452;28;20256;-62
2023/12/25 02:40:40;;;;;;;18.00;13.43;;;;;;;5.49;100.00;108982.47;5093334;28;20226;-63
2023/12/25 02:43:09;;;;;;;14.37;12.07;;;;;;;5.29;100.00;115701.06;5092837;28;20237;-63
2023/12/25 02:45:37;;;;;;;18.97;11.80;;;;;;;5.25;100.00;117539.91;5093093;28;20180;-62
2023/12/25 02:48:04;;;;;;;13.53;11.70;;;;;;;5.40;100.00;117178.97;5093066;28;20635;-64
2023/12/25 02:50:31;;;;;;;14.93;11.87;;;;;;;5.30;100.00;115227.75;5092955;28;20172;-62
2023/12/25 02:52:59;;;;;;;20.67;11.53;;;;;;;5.38;100.00;110812.31;5092728;28;20659;-63
2023/12/25 02:55:26;;;;;;;14.17;12.17;;;;;;;5.33;100.00;112079.25;5092964;28;20697;-62
2023/12/25 02:57:53;;;;;;;12.20;9.80;;;;;;;5.25;100.00;111364.03;5091989;28;20188;-62
2023/12/25 03:00:22;;;;;;;12.70;11.43;;;;;;;5.34;100.00;107472.25;5092659;28;20237;-64
2023/12/25 03:02:49;;;;;;;21.20;13.40;;;;;;;5.38;100.00;101306.38;5092843;28;20249;-63
2023/12/25 03:05:16;;;;;;;10.83;9.73;;;;;;;5.30;100.00;98811.81;5092913;28;20187;-62
2023/12/25 03:07:43;;;;;;;12.53;11.33;;;;;;;5.41;100.00;100832.03;5092959;28;20181;-63
2023/12/25 03:10:10;;;;;;;14.03;11.57;;;;;;;5.52;100.00;95680.56;5092606;28;20771;-63
2023/12/25 03:12:37;;;;;;;15.33;11.70;;;;;;;5.44;100.00;96534.34;5092398;28;20184;-63
2023/12/25 03:15:05;;;;;;;13.00;11.70;;;;;;;5.46;100.00;96626.00;5092687;28;20638;-64
2023/12/25 03:17:34;;;;;;;12.97;11.73;;;;;;;5.36;100.00;101152.41;5092318;28;20184;-62
2023/12/25 03:20:01;;;;;;;14.17;12.90;;;;;;;5.36;100.00;95394.59;5092169;28;20673;-63
2023/12/25 03:22:28;;;;;;;17.37;13.97;;;;;;;5.41;100.00;87456.50;5092219;28;20184;-62
2023/12/25 03:24:55;;;;;;;14.53;13.03;;;;;;;5.14;100.00;88656.25;5092478;28;20630;-63
2023/12/25 03:27:22;;;;;;;15.57;11.40;;;;;;;5.03;100.00;95136.16;5092326;28;20249;-63
2023/12/25 03:29:49;;;;;;;14.57;9.90;;;;;;;5.22;100.00;96518.31;5092376;28;20189;-63
2023/12/25 03:32:19;;;;;;;12.43;11.33;;;;;;;5.26;100.00;101655.34;5092175;28;20188;-63
2023/12/25 03:34:48;;;;;;;9.30;8.47;;;;;;;5.31;100.00;93307.69;5092263;28;20242;-63
2023/12/25 03:37:15;;;;;;;8.67;8.07;;;;;;;5.45;100.00;83849.47;5092144;28;20191;-62
2023/12/25 03:39:42;;;;;;;13.10;11.67;;;;;;;5.50;100.00;80136.63;5091803;28;20253;-63
2023/12/25 03:42:09;;;;;;;11.97;10.87;;;;;;;5.50;100.00;83854.13;5091850;28;20192;-63
2023/12/25 03:44:36;;;;;;;12.83;11.60;;;;;;;5.54;100.00;82399.78;5092071;28;20188;-63
2023/12/25 03:47:03;;;;;;;16.37;11.67;;;;;;;5.61;100.00;81980.84;5092145;28;20630;-63
2023/12/25 03:49:30;;;;;;;10.03;9.23;;;;;;;5.63;100.00;83991.50;5091822;28;20184;-62
2023/12/25 03:51:59;;;;;;;8.57;7.97;;;;;;;5.64;100.00;83019.88;5091547;28;20257;-63
2023/12/25 03:54:26;;;;;;;8.07;7.20;;;;;;;5.66;100.00;82439.63;5092475;28;20667;-62
2023/12/25 03:56:53;;;;;;;7.47;6.93;;;;;;;5.65;100.00;82897.63;5092067;28;20184;-63
2023/12/25 03:59:20;;;;;;;8.43;7.83;;;;;;;5.79;100.00;83928.22;5092008;28;20739;-63
2023/12/25 04:01:47;;;;;;;13.03;11.70;;;;;;;5.80;100.00;84976.19;5092000;28;20184;-62
2023/12/25 04:04:14;;;;;;;13.70;12.30;;;;;;;5.68;100.00;79750.56;5092040;28;20583;-63
2023/12/25 04:06:41;;;;;;;15.97;11.67;;;;;;;5.68;100.00;77248.31;5091658;28;20234;-62
2023/12/25 04:09:10;;;;;;;12.10;11.20;;;;;;;5.45;100.00;75351.16;5092537;28;20184;-62
2023/12/25 04:11:37;;;;;;;21.03;12.03;;;;;;;5.73;100.00;75711.75;5095729;28;20240;-63
2023/12/25 04:14:04;;;;;;;12.60;11.30;;;;;;;5.66;100.00;75943.28;5096127;28;20188;-64
2023/12/25 04:16:31;;;;;;;12.80;11.70;;;;;;;5.70;100.00;76736.50;5095825;28;20191;-63
2023/12/25 04:18:58;;;;;;;13.00;11.73;;;;;;;5.69;100.00;77875.66;5095773;28;20211;-63
2023/12/25 04:21:25;;;;;;;13.43;11.57;;;;;;;5.38;100.00;80823.09;5095825;28;20220;-63
2023/12/25 04:23:53;;;;;;;12.07;11.07;;;;;;;5.23;100.00;82191.03;5095506;28;20188;-64
2023/12/25 04:26:23;;;;;;;11.77;10.73;;;;;;;5.46;100.00;83883.19;5095451;28;20188;-63
2023/12/25 04:28:51;;;;;;;19.97;12.20;;;;;;;5.37;100.00;83744.03;5095492;28;20205;-62
2023/12/25 04:31:18;;;;;;;12.67;11.53;;;;;;;5.45;100.00;85065.50;5095424;28;20200;-62
2023/12/25 04:33:46;;;;;;;12.23;10.53;;;;;;;5.42;100.00;85472.47;5095823;28;20176;-63
2023/12/25 04:36:13;;;;;;;12.37;11.00;;;;;;;5.20;100.00;84386.16;5095776;28;20607;-63
2023/12/25 04:38:40;;;;;;;11.07;9.90;;;;;;;4.90;100.00;86475.28;5095587;28;20641;-62
2023/12/25 04:41:08;;;;;;;15.00;11.27;;;;;;;5.02;100.00;86259.59;5095682;28;20245;-63
2023/12/25 04:43:36;;;;;;;14.27;10.83;;;;;;;5.11;100.00;84876.25;5095218;28;20184;-63
2023/12/25 04:46:03;;;;;;;10.70;9.60;;;;;;;5.13;100.00;85259.13;5095189;28;20192;-62
2023/12/25 04:48:31;;;;;;;11.60;9.60;;;;;;;5.21;100.00;81108.06;5095227;28;20535;-62
2023/12/25 04:51:00;;;;;;;11.53;9.60;;;;;;;5.20;100.00;77604.84;5095066;28;20184;-63
2023/12/25 04:53:29;;;;;;;10.27;9.30;;;;;;;5.39;100.00;77194.50;5094986;28;20281;-62
2023/12/25 04:55:56;;;;;;;9.97;9.10;;;;;;;5.45;100.00;76666.16;5094968;28;20192;-63
2023/12/25 04:58:23;;;;;;;9.53;8.73;;;;;;;5.40;100.00;79529.63;5094922;28;20188;-62
2023/12/25 05:00:52;;;;;;;11.43;10.57;;;;;;;5.36;100.00;83141.19;5094857;28;20237;-63
2023/12/25 05:03:21;;;;;;;9.30;8.60;;;;;;;5.37;100.00;83131.75;5094899;28;20257;-63
2023/12/25 05:05:48;;;;;;;9.03;8.17;;;;;;;5.47;100.00;79747.78;5094811;28;20288;-63
2023/12/25 05:08:15;;;;;;;8.60;8.00;;;;;;;5.61;100.00;75381.41;5094766;28;20241;-63
2023/12/25 05:10:42;;;;;;;7.97;7.30;;;;;;;5.73;100.00;73908.47;5095138;28;20180;-63
2023/12/25 05:13:09;;;;;;;8.13;7.53;;;;;;;5.87;100.00;74721.69;5094909;28;20288;-63
2023/12/25 05:15:37;;;;;;;8.40;7.70;;;;;;;5.88;100.00;82745.06;5094927;28;20188;-63
2023/12/25 05:18:05;;;;;;;8.27;7.63;;;;;;;6.00;100.00;86572.28;5094572;28;20237;-62
2023/12/25 05:20:32;;;;;;;9.30;8.50;;;;;;;6.09;100.00;90419.88;5093837;28;20200;-62
2023/12/25 05:22:59;;;;;;;6.77;6.40;;;;;;;6.13;100.00;98583.22;5094691;28;20241;-63
2023/12/25 05:25:26;;;;;;;6.63;6.10;;;;;;;6.19;100.00;99900.28;5094820;28;20220;-64
2023/12/25 05:27:53;;;;;;;8.03;7.60;;;;;;;6.29;100.00;102205.19;5094305;28;20181;-63
2023/12/25 05:30:20;;;;;;;9.83;7.57;;;;;;;6.15;100.00;117912.34;5094296;28;20215;-63
2023/12/25 05:32:48;;;;;;;6.10;5.50;;;;;;;6.20;100.00;123319.84;5094542;28;20184;-63
2023/12/25 05:35:16;;;;;;;6.40;5.90;;;;;;;6.27;100.00;116950.06;5094248;28;20245;-63
2023/12/25 05:37:43;;;;;;;5.97;5.57;;;;;;;6.45;100.00;111076.50;5094539;28;20249;-62
2023/12/25 05:40:12;;;;;;;4.77;4.47;;;;;;;6.59;100.00;109463.16;5094382;28;20559;-66
2023/12/25 05:42:39;;;;;;;5.83;5.43;;;;;;;6.67;100.00;109478.13;5094398;28;20241;-62
2023/12/25 05:45:07;;;;;;;6.97;6.27;;;;;;;6.84;100.00;111150.50;5093934;28;20184;-63
2023/12/25 05:47:34;;;;;;;5.13;4.70;;;;;;;6.86;100.00;118053.38;5094052;28;20184;-63
2023/12/25 05:50:01;;;;;;;6.57;6.13;;;;;;;6.90;100.00;134164.06;5093872;28;20185;-64
2023/12/25 05:52:30;;;;;;;6.30;5.80;;;;;;;7.05;100.00;135488.31;5093720;28;20263;-64
2023/12/25 05:54:57;;;;;;;7.87;6.20;;;;;;;7.04;100.00;147817.22;5094341;28;20667;-63
2023/12/25 05:57:24;;;;;;;8.23;6.30;;;;;;;7.02;100.00;147810.91;5094322;28;20183;-62
2023/12/25 05:59:51;;;;;;;7.33;6.60;;;;;;;7.13;100.00;147838.66;5094052;28;20236;-64
2023/12/25 06:02:18;;;;;;;10.77;9.70;;;;;;;7.30;100.00;147881.47;5093725;28;20234;-62
2023/12/25 06:04:45;;;;;;;8.30;7.50;;;;;;;7.32;100.00;147887.81;5093980;28;20192;-64
2023/12/25 06:07:12;;;;;;;17.43;10.57;;;;;;;7.25;100.00;147870.16;5093889;28;20180;-63
2023/12/25 06:09:41;;;;;;;10.23;9.33;;;;;;;7.54;100.00;147942.03;5093569;28;20242;-64
2023/12/25 06:12:08;;;;;;;14.60;9.43;;;;;;;7.78;100.00;148002.53;5093855;28;20184;-62
2023/12/25 06:14:36;;;;;;;10.53;9.87;;;;;;;7.99;100.00;148052.97;5093889;28;20191;-63
2023/12/25 06:17:04;;;;;;;9.70;8.83;;;;;;;8.33;100.00;148137.56;5093339;28;20195;-63
2023/12/25 06:19:31;;;;;;;9.20;8.47;;;;;;;8.50;100.00;148181.72;5093459;28;20215;-63
2023/12/25 06:21:58;;;;;;;8.73;7.90;;;;;;;8.85;100.00;148267.56;5093242;28;20265;-63
2023/12/25 06:24:25;;;;;;;8.20;7.50;;;;;;;9.14;100.00;148340.75;5093605;28;20181;-64
2023/12/25 06:26:53;;;;;;;7.67;6.97;;;;;;;9.75;100.00;148492.31;5093305;28;20271;-64
2023/12/25 06:29:20;;;;;;;10.87;7.97;;;;;;;10.21;100.00;148608.59;5093256;28;20184;-64
2023/12/25 06:31:48;;;;;;;7.60;7.07;;;;;;;10.29;100.00;148628.81;5093056;28;20280;-63
2023/12/25 06:34:15;;;;;;;12.83;7.83;;;;;;;10.38;100.00;148650.31;5092412;28;20184;-64
2023/12/25 06:36:42;;;;;;;12.33;7.90;;;;;;;10.33;100.00;148637.66;5093438;28;20696;-63
2023/12/25 06:39:09;;;;;;;15.63;7.00;;;;;;;10.33;100.00;148638.94;5092901;28;20184;-63
2023/12/25 06:41:36;;;;;;;8.10;7.60;;;;;;;10.34;100.00;148640.19;5093375;28;20627;-63
2023/12/25 06:44:05;;;;;;;6.77;6.23;;;;;;;10.24;100.00;148614.91;5093240;28;20622;-64
2023/12/25 06:46:32;;;;;;;7.97;6.33;;;;;;;10.23;100.00;148613.63;5093177;28;20202;-64
2023/12/25 06:48:59;;;;;;;9.43;7.23;;;;;;;10.10;100.00;148580.72;5092793;28;20191;-63
2023/12/25 06:51:27;;;;;;;8.73;7.63;;;;;;;9.99;100.00;148552.94;5092742;28;20642;-63
2023/12/25 06:53:54;;;;;;;8.30;7.73;;;;;;;9.78;100.00;148499.88;5092406;28;20228;-64
2023/12/25 06:56:22;;;;;;;8.07;7.47;;;;;;;9.75;100.00;148493.59;5092986;28;20234;-62
2023/12/25 06:58:50;;;;;;;15.47;8.17;;;;;;;9.64;100.00;148467.03;5092945;28;20188;-64
2023/12/25 07:01:23;;;;;;;12.17;7.90;;;;;;;9.60;100.00;148455.66;5092936;28;20620;-63
2023/12/25 07:03:50;;;;;;;9.20;8.40;;;;;;;9.67;100.00;148472.13;5092618;28;20267;-63
2023/12/25 07:06:17;;;;;;;11.27;8.23;;;;;;;9.73;100.00;148487.25;5092838;28;20188;-63
2023/12/25 07:08:45;;;;;;;21.07;11.07;;;;;;;9.74;100.00;148489.78;5092549;28;20187;-63
2023/12/25 07:11:13;;;;;;;9.30;8.37;;;;;;;9.71;100.00;148483.50;5092648;28;20237;-65
2023/12/25 07:13:42;;;;;;;8.80;8.03;;;;;;;9.89;100.00;148527.66;5092499;28;20267;-63
2023/12/25 07:16:09;;;;;;;10.83;9.80;;;;;;;9.95;100.00;148542.84;5092361;28;20188;-64
2023/12/25 07:18:37;;;;;;;12.37;9.20;;;;;;;10.04;100.00;148565.59;5092331;28;20242;-62
2023/12/25 07:21:04;;;;;;;17.33;8.67;;;;;;;10.06;100.00;148570.63;5092182;28;20207;-64
2023/12/25 07:23:31;;;;;;;9.10;8.20;;;;;;;9.94;100.00;148541.56;5092551;28;20195;-63
2023/12/25 07:25:58;;;;;;;13.03;8.93;;;;;;;9.93;100.00;148537.81;5092462;28;20196;-63
2023/12/25 07:28:25;;;;;;;9.63;8.60;;;;;;;9.83;100.00;148513.81;5092336;28;20253;-62
2023/12/25 07:30:52;;;;;;;9.47;8.67;;;;;;;9.72;100.00;148485.97;5091941;28;20187;-62
2023/12/25 07:33:19;;;;;;;20.57;12.33;;;;;;;9.62;100.00;148462.03;5092400;28;20680;-63
2023/12/25 07:35:48;;;;;;;25.40;16.87;;;;;;;9.54;100.00;148441.81;5092455;28;20184;-62
2023/12/25 07:38:15;;;;;;;29.87;17.47;;;;;;;9.20;100.00;148354.66;5092610;28;20362;-63
2023/12/25 07:40:42;;;;;;;29.87;16.80;;;;;;;8.92;100.00;148286.47;5091933;28;20292;-64
2023/12/25 07:43:10;;;;;;;27.70;15.40;;;;;;;9.15;100.00;148344.56;5091882;28;20180;-63
2023/12/25 07:45:37;;;;;;;26.57;15.77;;;;;;;9.24;100.00;148366.03;5091741;28;20615;-63
2023/12/25 07:48:04;;;;;;;28.93;17.30;;;;;;;9.46;100.00;148420.34;5091815;28;20218;-63
2023/12/25 07:50:31;;;;;;;23.60;15.50;;;;;;;9.62;100.00;148460.75;5091818;28;20180;-63
2023/12/25 07:53:00;;;;;;;23.80;14.20;;;;;;;9.81;100.00;148508.72;5091746;28;20231;-63
2023/12/25 07:55:30;;;;;;;21.07;15.13;;;;;;;9.90;100.00;148531.47;5092058;28;20188;-63
2023/12/25 07:57:57;;;;;;;21.10;13.80;;;;;;;10.13;100.00;148588.34;5092060;28;20241;-64
2023/12/25 08:00:24;;;;;;;15.77;13.50;;;;;;;10.25;100.00;148618.72;5091957;28;20233;-63
2023/12/25 08:02:52;;;;;;;19.57;11.70;;;;;;;10.40;100.00;148656.59;5091721;28;20249;-63
2023/12/25 08:05:19;;;;;;;12.53;11.47;;;;;;;10.55;100.00;148693.28;5091757;28;20190;-64
2023/12/25 08:07:46;;;;;;;11.10;9.27;;;;;;;10.59;100.00;148702.13;5091639;28;20180;-63
2023/12/25 08:10:15;;;;;;;9.97;9.17;;;;;;;10.72;100.00;148735.00;5091591;28;20180;-63
2023/12/25 08:12:43;;;;;;;12.57;9.53;;;;;;;10.80;100.00;148755.22;5091972;28;20283;-64
2023/12/25 08:15:11;;;;;;;11.43;8.60;;;;;;;10.78;100.00;148751.41;5092251;28;20530;-63
2023/12/25 08:17:38;;;;;;;10.00;9.30;;;;;;;10.82;100.00;148761.53;5091760;28;20184;-64
2023/12/25 08:20:06;;;;;;;10.13;9.20;;;;;;;10.89;100.00;148777.97;5091496;28;20207;-63
2023/12/25 08:22:33;;;;;;;11.87;10.03;;;;;;;11.02;100.00;148810.88;5091713;28;20210;-63
2023/12/25 08:25:00;;;;;;;10.30;9.50;;;;;;;11.13;100.00;148838.66;5091740;28;20211;-62
2023/12/25 08:27:29;;;;;;;10.43;9.33;;;;;;;11.29;100.00;148879.13;5091881;28;20231;-63
2023/12/25 08:29:56;;;;;;;9.97;9.03;;;;;;;11.31;100.00;148884.22;5091763;28;20566;-64
2023/12/25 08:32:23;;;;;;;9.30;8.70;;;;;;;11.34;100.00;148891.78;5091807;28;20257;-64
2023/12/25 08:34:50;;;;;;;8.97;8.10;;;;;;;11.27;100.00;148872.81;5091497;28;20189;-64
2023/12/25 08:37:18;;;;;;;8.03;7.53;;;;;;;11.44;100.00;148917.09;5091471;28;20181;-64
2023/12/25 08:39:45;;;;;;;11.77;7.47;;;;;;;11.53;100.00;148938.59;5091551;28;20551;-64
2023/12/25 08:42:12;;;;;;;7.93;7.20;;;;;;;11.53;100.00;148937.34;5091605;28;20592;-64
2023/12/25 08:44:40;;;;;;;9.10;8.40;;;;;;;11.56;100.00;148944.91;5091369;28;20227;-63
2023/12/25 08:47:08;;;;;;;9.07;8.20;;;;;;;11.67;100.00;148974.00;5091181;28;20634;-64
2023/12/25 08:49:36;;;;;;;9.47;8.63;;;;;;;11.72;100.00;148985.44;5091367;28;20261;-63
2023/12/25 08:52:03;;;;;;;8.40;7.70;;;;;;;12.25;100.00;149118.31;5091168;28;20196;-64
2023/12/25 08:54:31;;;;;;;8.53;7.73;;;;;;;13.03;100.00;149314.53;5091301;28;20238;-63
2023/12/25 08:56:59;;;;;;;11.50;7.80;;;;;;;13.73;100.00;149489.44;5093321;28;20291;-64
2023/12/25 08:59:26;;;;;;;9.80;6.63;;;;;;;14.21;100.00;149608.59;5095237;28;20188;-63
2023/12/25 09:01:55;;;;;;;6.33;5.70;;;;;;;14.36;100.00;149646.66;5095197;28;20738;-63
2023/12/25 09:04:22;;;;;;;5.77;5.27;;;;;;;14.26;100.00;149622.50;5094875;28;20184;-63
2023/12/25 09:06:49;;;;;;;6.87;5.13;;;;;;;14.21;100.00;149609.88;5094989;28;20715;-64
2023/12/25 09:09:16;;;;;;;6.30;4.93;;;;;;;14.38;100.00;149651.75;5094740;28;20207;-64
2023/12/25 09:11:43;;;;;;;5.57;5.03;;;;;;;14.40;100.00;149658.06;5095061;28;20184;-63
2023/12/25 09:14:10;;;;;;;6.50;5.50;;;;;;;14.44;100.00;149666.94;5095142;28;20288;-64
2023/12/25 09:16:37;;;;;;;5.07;4.83;;;;;;;14.44;100.00;149666.94;5094941;28;20628;-63
2023/12/25 09:19:06;;;;;;;5.73;5.20;;;;;;;14.51;100.00;149684.72;5094941;28;20629;-64
2023/12/25 09:21:38;;;;;;;5.17;4.87;;;;;;;14.57;100.00;149701.16;5094448;28;20204;-64
2023/12/25 09:24:05;;;;;;;5.90;5.47;;;;;;;14.84;100.00;149768.41;5094470;28;20270;-65
2023/12/25 09:26:32;;;;;;;5.90;5.40;;;;;;;15.07;100.00;149826.72;5094720;28;20600;-64
2023/12/25 09:28:59;;;;;;;7.33;5.70;;;;;;;15.38;100.00;149904.13;5094691;28;20187;-63
2023/12/25 09:31:27;;;;;;;5.80;5.33;;;;;;;15.61;100.00;149961.28;5094308;28;20242;-64
2023/12/25 09:33:54;;;;;;;5.80;5.10;;;;;;;15.69;100.00;149980.31;5094373;28;20237;-63
2023/12/25 09:36:24;;;;;;;4.90;4.70;;;;;;;15.91;100.00;150036.16;5094614;28;20608;-64
2023/12/25 09:38:51;;;;;;;4.67;4.37;;;;;;;15.89;100.00;150032.34;5094156;28;20180;-65
2023/12/25 09:41:19;;;;;;;7.63;4.43;;;;;;;16.12;100.00;150089.47;5094195;28;20215;-64
2023/12/25 09:43:48;;;;;;;5.33;4.43;;;;;;;16.59;100.00;150207.56;5094184;28;20554;-64
2023/12/25 09:46:17;;;;;;;4.67;4.37;;;;;;;16.92;100.00;150288.88;5094353;28;20179;-65
2023/12/25 09:48:47;;;;;;;6.30;4.80;;;;;;;16.73;100.00;150241.88;5094158;28;20176;-64
2023/12/25 09:51:17;;;;;;;5.20;4.80;;;;;;;16.89;100.00;150283.78;5094011;28;20184;-64
2023/12/25 09:53:46;;;;;;;5.47;4.73;;;;;;;16.95;99.93;150296.50;5093773;28;20239;-63
2023/12/25 09:56:13;;;;;;;9.00;4.60;;;;;;;17.94;95.59;150545.63;5093864;28;20184;-63
2023/12/25 09:58:41;;;;;;;5.37;4.93;;;;;;;19.76;81.90;151003.66;5094139;28;20190;-64
2023/12/25 10:01:09;;;;;;;4.70;4.40;;;;;;;22.61;66.95;151722.41;5094097;28;20552;-64
2023/12/25 10:03:38;;;;;;;5.13;4.72;;;;;;;24.24;56.06;152133.44;5094172;28;20555;-64
2023/12/25 10:06:06;;;;;;;5.35;4.90;;;;;;;25.24;52.21;152386.38;5093992;28;20631;-65
2023/12/25 10:08:33;;;;;;;5.40;5.00;;;;;;;26.04;49.71;152588.34;5093905;28;20184;-65
2023/12/25 10:11:04;;;;;;;5.85;5.30;;;;;;;27.22;44.66;152887.66;5094025;28;20180;-65
2023/12/25 10:13:31;;;;;;;5.13;4.82;;;;;;;25.98;44.52;152572.97;5094132;28;20564;-64
2023/12/25 10:15:58;;;;;;;5.00;4.70;;;;;;;25.94;45.54;152564.03;5094296;28;20340;-64
2023/12/25 10:18:25;;;;;;;4.32;4.03;;;;;;;26.90;43.35;152807.09;5093599;28;20287;-64
2023/12/25 10:20:57;;;;;;;4.97;3.30;;;;;;;26.70;43.15;152757.16;5093715;28;20686;-65
2023/12/25 10:23:29;;;;;;;3.13;2.80;;;;;;;25.04;44.44;152336.53;5093821;28;20557;-65
2023/12/25 10:25:57;;;;;;;11.65;2.38;;;;;;;24.51;42.05;152203.69;5093709;28;20653;-65
2023/12/25 10:28:28;;;;;;;2.97;2.35;;;;;;;23.26;42.75;151885.72;5093332;28;20275;-65
2023/12/25 10:31:02;;;;;;;4.93;2.00;;;;;;;23.86;42.62;152037.63;5093428;28;20188;-64
2023/12/25 10:33:30;;;;;;;3.83;2.47;;;;;;;23.46;43.85;151936.84;5093652;28;20576;-65
2023/12/25 10:36:06;;;;;;;2.55;1.95;;;;;;;22.79;44.26;151767.09;5093371;28;20605;-64
2023/12/25 10:38:35;;;;;;;1.80;1.70;;;;;;;21.83;45.98;151526.00;5093324;28;20187;-64
2023/12/25 10:41:18;;;;;;;1.80;1.70;;;;;;;21.15;47.18;151355.22;5093084;28;20204;-64
2023/12/25 10:43:52;;;;;;;1.98;1.70;;;;;;;20.75;49.41;151254.50;5091925;28;20254;-64
2023/12/25 10:46:22;;;;;;;3.75;1.70;;;;;;;20.51;50.00;151194.66;5093297;28;20207;-64
2023/12/25 10:48:51;;;;;;;2.15;1.95;;;;;;;20.28;50.48;151134.78;5092932;28;20233;-64
2023/12/25 10:51:25;;;;;;;4.83;2.23;;;;;;;20.12;51.88;151095.28;5093154;28;20608;-65
2023/12/25 10:53:52;;;;;;;3.33;1.87;;;;;;;19.90;53.39;151039.31;5092670;28;20215;-65
2023/12/25 10:56:21;;;;;;;2.10;2.00;;;;;;;19.90;52.79;151040.53;5092819;28;20646;-65
2023/12/25 10:58:51;;;;;;;2.17;2.03;;;;;;;19.80;52.97;151015.09;5092654;28;20194;-64
2023/12/25 11:01:25;;;;;;;2.93;2.07;;;;;;;19.76;53.14;151003.66;5093017;28;20215;-63
2023/12/25 11:03:54;;;;;;;1.90;1.80;;;;;;;19.57;54.66;150956.53;5092636;28;20187;-63
2023/12/25 11:06:22;;;;;;;1.80;1.70;;;;;;;19.48;54.65;150933.63;5092591;28;20180;-64
2023/12/25 11:08:49;;;;;;;2.10;2.00;;;;;;;19.61;54.52;150968.00;5092665;28;20245;-64
2023/12/25 11:11:17;;;;;;;1.63;1.53;;;;;;;19.50;54.57;150940.00;5092588;28;20188;-64
2023/12/25 11:13:44;;;;;;;1.97;1.87;;;;;;;19.42;54.61;150919.59;5092774;28;20184;-64
2023/12/25 11:16:12;;;;;;;3.30;2.23;;;;;;;19.46;54.54;150928.56;5092391;28;20192;-64
2023/12/25 11:18:40;;;;;;;2.07;1.97;;;;;;;19.51;54.60;150942.56;5091742;28;20194;-64
2023/12/25 11:21:08;;;;;;;2.90;1.90;;;;;;;19.50;54.70;150940.00;5092166;28;20234;-63